createdAt,value
2018-05-10T00:00:02.922Z,22.90
2018-05-10T00:02:29.851Z,22.90
2018-05-10T00:04:56.810Z,22.90
2018-05-10T00:07:23.084Z,22.90
2018-05-10T00:09:49.315Z,22.90
2018-05-10T00:12:15.552Z,22.90
2018-05-10T00:14:41.778Z,22.90
2018-05-10T00:17:08.021Z,22.90
2018-05-10T00:19:34.258Z,22.90
2018-05-10T00:22:00.486Z,22.90
2018-05-10T00:24:26.730Z,22.90
2018-05-10T00:26:52.974Z,22.90
2018-05-10T00:29:19.940Z,22.90
2018-05-10T00:31:46.158Z,22.90
2018-05-10T00:34:13.124Z,22.90
2018-05-10T00:36:39.360Z,22.90
2018-05-10T00:39:05.589Z,22.90
2018-05-10T00:41:31.824Z,22.80
2018-05-10T00:43:58.114Z,22.90
2018-05-10T00:46:24.331Z,22.90
2018-05-10T00:48:50.540Z,22.80
2018-05-10T00:51:16.796Z,22.90
2018-05-10T00:53:43.744Z,22.90
2018-05-10T00:56:09.959Z,22.80
2018-05-10T00:58:36.167Z,22.80
2018-05-10T01:01:03.114Z,22.90
2018-05-10T01:03:30.039Z,22.90
2018-05-10T01:05:56.248Z,22.80
2018-05-10T01:08:23.263Z,22.80
2018-05-10T01:10:49.520Z,22.80
2018-05-10T01:13:15.758Z,22.80
2018-05-10T01:15:42.083Z,22.80
2018-05-10T01:18:08.303Z,22.80
2018-05-10T01:20:34.513Z,22.80
2018-05-10T01:23:00.749Z,22.80
2018-05-10T01:25:28.806Z,22.80
2018-05-10T01:27:55.804Z,22.80
2018-05-10T01:30:22.028Z,22.80
2018-05-10T01:32:48.268Z,22.80
2018-05-10T01:35:14.690Z,22.80
2018-05-10T01:37:41.478Z,22.80
2018-05-10T01:40:07.682Z,22.80
2018-05-10T01:42:33.911Z,22.80
2018-05-10T01:45:00.148Z,22.80
2018-05-10T01:47:26.382Z,22.80
2018-05-10T01:49:52.578Z,22.80
2018-05-10T01:52:18.765Z,22.80
2018-05-10T01:54:45.000Z,22.80
2018-05-10T01:57:11.940Z,22.80
2018-05-10T01:59:38.900Z,22.80
2018-05-10T02:02:05.096Z,22.80
2018-05-10T02:04:32.054Z,22.80
2018-05-10T02:06:58.248Z,22.80
2018-05-10T02:09:24.488Z,22.80
2018-05-10T02:11:50.692Z,22.80
2018-05-10T02:14:16.875Z,22.70
2018-05-10T02:16:43.822Z,22.80
2018-05-10T02:19:10.036Z,22.80
2018-05-10T02:21:36.211Z,22.80
2018-05-10T02:24:02.395Z,22.70
2018-05-10T02:26:29.371Z,22.80
2018-05-10T02:28:55.566Z,22.80
2018-05-10T02:31:22.496Z,22.80
2018-05-10T02:33:48.692Z,22.80
2018-05-10T02:36:15.640Z,22.80
2018-05-10T02:38:42.549Z,22.70
2018-05-10T02:41:08.761Z,22.70
2018-05-10T02:43:34.936Z,22.80
2018-05-10T02:46:01.110Z,22.80
2018-05-10T02:48:27.283Z,22.70
2018-05-10T02:50:54.245Z,22.80
2018-05-10T02:53:20.516Z,22.70
2018-05-10T02:55:46.716Z,22.70
2018-05-10T02:58:12.943Z,22.70
2018-05-10T03:00:39.261Z,22.80
2018-05-10T03:03:05.473Z,22.70
2018-05-10T03:05:31.745Z,22.70
2018-05-10T03:07:57.964Z,22.70
2018-05-10T03:10:24.153Z,22.80
2018-05-10T03:12:50.405Z,22.70
2018-05-10T03:15:17.552Z,22.80
2018-05-10T03:17:43.783Z,22.70
2018-05-10T03:20:10.759Z,22.70
2018-05-10T03:22:36.976Z,22.70
2018-05-10T03:25:03.947Z,22.70
2018-05-10T03:27:30.148Z,22.70
2018-05-10T03:29:57.128Z,22.70
2018-05-10T03:32:23.329Z,22.70
2018-05-10T03:34:49.539Z,22.70
2018-05-10T03:37:15.731Z,22.70
2018-05-10T03:39:42.695Z,22.70
2018-05-10T03:42:08.917Z,22.70
2018-05-10T03:44:35.149Z,22.70
2018-05-10T03:47:01.361Z,22.70
2018-05-10T03:49:28.303Z,22.70
2018-05-10T03:51:55.279Z,22.70
2018-05-10T03:54:21.467Z,22.70
2018-05-10T03:56:47.697Z,22.70
2018-05-10T03:59:13.875Z,22.70
2018-05-10T04:01:40.077Z,22.70
2018-05-10T04:04:06.276Z,22.70
2018-05-10T04:06:32.508Z,22.70
2018-05-10T04:08:59.483Z,22.70
2018-05-10T04:11:25.689Z,22.70
2018-05-10T04:13:51.893Z,22.70
2018-05-10T04:16:18.147Z,22.70
2018-05-10T04:18:44.373Z,22.70
2018-05-10T04:21:10.623Z,22.70
2018-05-10T04:23:36.815Z,22.70
2018-05-10T04:26:03.795Z,22.70
2018-05-10T04:28:30.025Z,22.70
2018-05-10T04:30:56.245Z,22.70
2018-05-10T04:33:22.447Z,22.60
2018-05-10T04:35:48.736Z,22.70
2018-05-10T04:38:15.653Z,22.70
2018-05-10T04:40:41.891Z,22.60
2018-05-10T04:43:08.831Z,22.60
2018-05-10T04:45:35.355Z,22.60
2018-05-10T04:48:02.299Z,22.60
2018-05-10T04:50:29.249Z,22.70
2018-05-10T04:52:55.488Z,22.70
2018-05-10T04:55:21.701Z,22.70
2018-05-10T04:57:47.932Z,22.70
2018-05-10T05:00:14.158Z,22.70
2018-05-10T05:02:40.383Z,22.70
2018-05-10T05:05:06.849Z,22.60
2018-05-10T05:07:33.115Z,22.70
2018-05-10T05:09:59.315Z,22.80
2018-05-10T05:12:25.497Z,22.80
2018-05-10T05:14:51.713Z,22.80
2018-05-10T05:17:17.896Z,22.80
2018-05-10T05:19:44.100Z,22.70
2018-05-10T05:22:10.309Z,22.70
2018-05-10T05:24:36.516Z,22.80
2018-05-10T05:27:02.717Z,22.80
2018-05-10T05:29:29.684Z,22.70
2018-05-10T05:31:56.614Z,22.70
2018-05-10T05:34:23.616Z,22.70
2018-05-10T05:36:50.562Z,22.80
2018-05-10T05:39:18.324Z,22.80
2018-05-10T05:41:45.294Z,22.80
2018-05-10T05:44:12.203Z,22.80
2018-05-10T05:46:39.165Z,22.80
2018-05-10T05:49:05.404Z,22.80
2018-05-10T05:51:31.600Z,22.80
2018-05-10T05:53:58.574Z,22.90
2018-05-10T05:56:24.784Z,22.80
2018-05-10T05:58:51.008Z,22.90
2018-05-10T06:01:17.233Z,23.00
2018-05-10T06:03:43.452Z,23.00
2018-05-10T06:06:09.661Z,22.90
2018-05-10T06:08:35.917Z,22.90
2018-05-10T06:11:02.088Z,23.00
2018-05-10T06:13:29.089Z,23.00
2018-05-10T06:15:55.462Z,23.00
2018-05-10T06:18:21.580Z,23.10
2018-05-10T06:20:47.791Z,23.10
2018-05-10T06:23:13.994Z,23.10
2018-05-10T06:25:40.234Z,23.10
2018-05-10T06:28:06.446Z,23.20
2018-05-10T06:30:32.749Z,23.30
2018-05-10T06:32:59.040Z,23.40
2018-05-10T06:35:25.276Z,23.40
2018-05-10T06:37:52.249Z,23.40
2018-05-10T06:40:18.549Z,23.30
2018-05-10T06:42:44.776Z,23.50
2018-05-10T06:45:11.114Z,23.50
2018-05-10T06:47:37.303Z,23.50
2018-05-10T06:50:03.609Z,23.50
2018-05-10T06:52:29.857Z,23.50
2018-05-10T06:54:56.104Z,23.50
2018-05-10T06:57:22.297Z,23.50
2018-05-10T06:59:48.542Z,23.50
2018-05-10T07:02:15.506Z,23.60
2018-05-10T07:04:41.716Z,23.60
2018-05-10T07:07:07.907Z,23.60
2018-05-10T07:09:35.089Z,23.60
2018-05-10T07:12:01.054Z,23.60
2018-05-10T07:14:28.003Z,23.60
2018-05-10T07:16:54.204Z,23.60
2018-05-10T07:19:21.720Z,23.70
2018-05-10T07:21:48.674Z,23.70
2018-05-10T07:24:15.611Z,23.70
2018-05-10T07:26:41.838Z,23.70
2018-05-10T07:29:09.824Z,23.80
2018-05-10T07:31:36.776Z,23.80
2018-05-10T07:34:03.732Z,23.80
2018-05-10T07:36:30.682Z,23.80
2018-05-10T07:38:56.964Z,23.80
2018-05-10T07:41:23.220Z,23.80
2018-05-10T07:43:49.442Z,23.80
2018-05-10T07:46:16.419Z,23.90
2018-05-10T07:48:42.646Z,23.90
2018-05-10T07:51:08.965Z,23.90
2018-05-10T07:53:35.210Z,23.80
2018-05-10T07:56:01.442Z,23.90
2018-05-10T07:58:28.386Z,23.90
2018-05-10T08:00:54.694Z,23.80
2018-05-10T08:03:21.895Z,23.80
2018-05-10T08:05:48.156Z,23.90
2018-05-10T08:08:14.386Z,23.80
2018-05-10T08:10:40.577Z,23.80
2018-05-10T08:13:06.783Z,23.90
2018-05-10T08:15:34.327Z,23.90
2018-05-10T08:18:01.369Z,23.90
2018-05-10T08:20:27.953Z,23.90
2018-05-10T08:22:56.835Z,23.90
2018-05-10T08:25:23.221Z,23.90
2018-05-10T08:27:50.213Z,23.90
2018-05-10T08:30:16.441Z,23.90
2018-05-10T08:32:42.645Z,23.90
2018-05-10T08:35:09.868Z,23.90
2018-05-10T08:37:36.853Z,23.90
2018-05-10T08:40:03.367Z,23.90
2018-05-10T08:42:30.334Z,23.90
2018-05-10T08:44:57.331Z,23.90
2018-05-10T08:47:24.273Z,23.90
2018-05-10T08:49:50.518Z,23.90
2018-05-10T08:52:16.753Z,23.90
2018-05-10T08:54:43.690Z,23.80
2018-05-10T08:57:09.937Z,23.80
2018-05-10T08:59:36.168Z,23.80
2018-05-10T09:02:03.163Z,23.90
2018-05-10T09:04:30.185Z,23.80
2018-05-10T09:06:56.399Z,23.80
2018-05-10T09:09:23.360Z,23.80
2018-05-10T09:11:49.627Z,23.80
2018-05-10T09:14:15.888Z,23.90
2018-05-10T09:16:42.112Z,23.80
2018-05-10T09:19:08.343Z,23.80
2018-05-10T09:21:34.580Z,23.80
2018-05-10T09:24:00.790Z,23.70
2018-05-10T09:26:26.989Z,23.70
2018-05-10T09:28:53.189Z,23.70
2018-05-10T09:31:19.418Z,23.70
2018-05-10T09:33:45.632Z,23.70
2018-05-10T09:36:11.850Z,23.70
2018-05-10T09:38:38.812Z,23.70
2018-05-10T09:41:06.136Z,23.70
2018-05-10T09:43:32.354Z,23.70
2018-05-10T09:45:58.576Z,23.70
2018-05-10T09:48:24.840Z,23.70
2018-05-10T09:50:52.050Z,23.70
2018-05-10T09:53:18.526Z,23.70
2018-05-10T09:55:44.815Z,23.60
2018-05-10T09:58:11.032Z,23.70
2018-05-10T10:00:37.342Z,23.70
2018-05-10T10:03:03.773Z,23.70
2018-05-10T10:05:30.140Z,23.60
2018-05-10T10:07:56.350Z,23.60
2018-05-10T10:10:22.558Z,23.60
2018-05-10T10:12:48.760Z,23.60
2018-05-10T10:15:15.021Z,23.60
2018-05-10T10:17:41.286Z,23.60
2018-05-10T10:20:08.132Z,23.60
2018-05-10T10:22:34.330Z,23.60
2018-05-10T10:25:00.676Z,23.60
2018-05-10T10:27:27.008Z,23.60
2018-05-10T10:29:53.147Z,23.60
2018-05-10T10:32:19.362Z,23.50
2018-05-10T10:34:46.290Z,23.60
2018-05-10T10:37:12.526Z,23.50
2018-05-10T10:39:38.720Z,23.60
2018-05-10T10:42:06.399Z,23.60
2018-05-10T10:44:33.357Z,23.60
2018-05-10T10:46:59.542Z,23.60
2018-05-10T10:49:25.752Z,23.60
2018-05-10T10:51:52.692Z,23.60
2018-05-10T10:54:18.930Z,23.60
2018-05-10T10:56:45.143Z,23.60
2018-05-10T10:59:11.336Z,23.60
2018-05-10T11:01:38.284Z,23.60
2018-05-10T11:04:04.485Z,23.60
2018-05-10T11:06:30.704Z,23.60
2018-05-10T11:08:56.918Z,23.60
2018-05-10T11:11:23.164Z,23.60
2018-05-10T11:13:50.152Z,23.60
2018-05-10T11:16:16.352Z,23.60
2018-05-10T11:18:43.284Z,23.60
2018-05-10T11:21:09.482Z,23.60
2018-05-10T11:23:35.742Z,23.60
2018-05-10T11:26:01.995Z,23.60
2018-05-10T11:28:28.991Z,23.60
2018-05-10T11:30:55.216Z,23.60
2018-05-10T11:33:21.584Z,23.50
2018-05-10T11:35:47.753Z,23.50
2018-05-10T11:38:14.045Z,23.50
2018-05-10T11:40:41.009Z,23.50
2018-05-10T11:43:07.976Z,23.50
2018-05-10T11:45:34.213Z,23.50
2018-05-10T11:48:00.423Z,23.50
2018-05-10T11:50:26.681Z,23.50
2018-05-10T11:52:52.969Z,23.50
2018-05-10T11:55:19.318Z,23.40
2018-05-10T11:57:46.313Z,23.40
2018-05-10T12:00:12.553Z,23.40
2018-05-10T12:02:38.806Z,23.50
2018-05-10T12:05:06.007Z,23.40
2018-05-10T12:07:32.253Z,23.40
2018-05-10T12:09:58.570Z,23.40
2018-05-10T12:12:24.775Z,23.40
2018-05-10T12:14:51.006Z,23.40
2018-05-10T12:17:17.212Z,23.40
2018-05-10T12:19:44.173Z,23.40
2018-05-10T12:22:11.127Z,23.40
2018-05-10T12:24:38.100Z,23.50
2018-05-10T12:27:04.373Z,23.50
2018-05-10T12:29:30.584Z,23.60
2018-05-10T12:31:57.979Z,23.60
2018-05-10T12:34:24.220Z,23.50
2018-05-10T12:36:50.436Z,23.50
2018-05-10T12:39:16.700Z,23.50
2018-05-10T12:41:43.719Z,23.40
2018-05-10T12:44:09.881Z,23.40
2018-05-10T12:46:36.073Z,23.40
2018-05-10T12:49:03.010Z,23.30
2018-05-10T12:51:29.283Z,23.30
2018-05-10T12:53:55.575Z,23.30
2018-05-10T12:56:22.660Z,23.30
2018-05-10T12:58:48.871Z,23.30
2018-05-10T13:01:15.101Z,23.30
2018-05-10T13:03:41.349Z,23.20
2018-05-10T13:06:07.989Z,23.20
2018-05-10T13:08:34.321Z,23.20
2018-05-10T13:11:00.555Z,23.20
2018-05-10T13:13:27.399Z,23.20
2018-05-10T13:15:53.595Z,23.20
2018-05-10T13:18:20.581Z,23.20
2018-05-10T13:20:47.079Z,23.20
2018-05-10T13:23:13.337Z,23.20
2018-05-10T13:25:39.510Z,23.20
2018-05-10T13:28:05.710Z,23.20
2018-05-10T13:30:32.466Z,23.20
2018-05-10T13:32:58.787Z,23.20
2018-05-10T13:35:24.976Z,23.20
2018-05-10T13:37:51.973Z,23.20
2018-05-10T13:40:18.224Z,23.20
2018-05-10T13:42:45.290Z,23.10
2018-05-10T13:45:11.551Z,23.10
2018-05-10T13:47:37.944Z,23.10
2018-05-10T13:50:04.048Z,23.20
2018-05-10T13:52:32.371Z,23.20
2018-05-10T13:54:59.309Z,23.20
2018-05-10T13:57:25.569Z,23.20
2018-05-10T13:59:51.864Z,23.20
2018-05-10T14:02:18.176Z,23.10
2018-05-10T14:04:44.419Z,23.20
2018-05-10T14:07:11.369Z,23.10
2018-05-10T14:09:38.282Z,23.20
2018-05-10T14:12:05.481Z,23.10
2018-05-10T14:14:32.392Z,23.20
2018-05-10T14:16:58.550Z,23.10
2018-05-10T14:19:24.686Z,23.10
2018-05-10T14:21:50.861Z,23.10
2018-05-10T14:24:17.018Z,23.10
2018-05-10T14:26:43.911Z,23.10
2018-05-10T14:29:10.137Z,23.10
2018-05-10T14:31:37.018Z,23.10
2018-05-10T14:34:03.944Z,23.10
2018-05-10T14:36:30.170Z,23.00
2018-05-10T14:38:56.361Z,23.10
2018-05-10T14:41:22.576Z,23.10
2018-05-10T14:43:48.790Z,23.10
2018-05-10T14:46:15.099Z,23.00
2018-05-10T14:48:42.029Z,23.10
2018-05-10T14:51:08.238Z,23.10
2018-05-10T14:53:34.470Z,23.10
2018-05-10T14:56:00.776Z,23.10
2018-05-10T14:58:27.047Z,23.10
2018-05-10T15:00:53.292Z,23.10
2018-05-10T15:03:19.529Z,23.00
2018-05-10T15:05:45.783Z,23.00
2018-05-10T15:08:12.760Z,23.00
2018-05-10T15:10:39.783Z,23.00
2018-05-10T15:13:06.072Z,23.00
2018-05-10T15:15:32.484Z,23.00
2018-05-10T15:17:58.679Z,23.00
2018-05-10T15:20:24.906Z,23.00
2018-05-10T15:22:51.130Z,23.00
2018-05-10T15:25:17.379Z,23.00
2018-05-10T15:27:43.599Z,23.10
2018-05-10T15:30:09.841Z,23.00
2018-05-10T15:32:36.065Z,23.10
2018-05-10T15:35:02.382Z,23.10
2018-05-10T15:37:28.584Z,23.10
2018-05-10T15:39:55.454Z,23.20
2018-05-10T15:42:21.808Z,23.20
2018-05-10T15:44:48.797Z,23.10
2018-05-10T15:47:15.015Z,23.10
2018-05-10T15:49:41.333Z,23.20
2018-05-10T15:52:07.535Z,23.20
2018-05-10T15:54:33.783Z,23.20
2018-05-10T15:56:59.984Z,23.20
2018-05-10T15:59:26.273Z,23.30
2018-05-10T16:01:52.430Z,23.30
2018-05-10T16:04:18.680Z,23.30
2018-05-10T16:06:44.951Z,23.40
2018-05-10T16:09:11.909Z,23.50
2018-05-10T16:11:38.123Z,23.50
2018-05-10T16:14:05.112Z,23.60
2018-05-10T16:16:31.396Z,23.50
2018-05-10T16:18:57.607Z,23.50
2018-05-10T16:21:23.889Z,23.40
2018-05-10T16:23:50.098Z,23.40
2018-05-10T16:26:16.289Z,23.40
2018-05-10T16:29:55.673Z,23.30
2018-05-10T16:32:21.881Z,23.00
2018-05-10T16:34:48.102Z,22.90
2018-05-10T16:37:14.309Z,22.80
2018-05-10T16:39:40.516Z,22.80
2018-05-10T16:42:06.733Z,22.80
2018-05-10T16:44:33.775Z,22.90
2018-05-10T16:47:00.031Z,22.90
2018-05-10T16:49:26.235Z,23.00
2018-05-10T16:51:52.543Z,23.00
2018-05-10T16:54:19.482Z,23.00
2018-05-10T16:56:45.751Z,23.00
2018-05-10T16:59:13.283Z,23.00
2018-05-10T17:01:39.500Z,23.00
2018-05-10T17:04:05.692Z,23.10
2018-05-10T17:06:31.916Z,23.10
2018-05-10T17:08:58.173Z,23.10
2018-05-10T17:11:25.100Z,23.10
2018-05-10T17:13:52.061Z,23.10
2018-05-10T17:16:18.295Z,23.10
2018-05-10T17:18:44.532Z,23.10
2018-05-10T17:21:11.525Z,23.00
2018-05-10T17:23:38.504Z,23.00
2018-05-10T17:26:05.513Z,23.00
2018-05-10T17:28:31.770Z,23.00
2018-05-10T17:30:58.799Z,22.90
2018-05-10T17:33:25.728Z,23.00
2018-05-10T17:35:51.935Z,22.90
2018-05-10T17:38:18.158Z,22.90
2018-05-10T17:40:44.386Z,22.90
2018-05-10T17:43:10.594Z,22.90
2018-05-10T17:45:37.556Z,22.80
2018-05-10T17:48:03.894Z,22.80
2018-05-10T17:50:30.160Z,22.80
2018-05-10T17:52:57.137Z,22.80
2018-05-10T17:55:24.124Z,22.80
2018-05-10T17:57:50.323Z,22.80
2018-05-10T18:00:16.532Z,22.70
2018-05-10T18:02:43.469Z,22.80
2018-05-10T18:05:09.665Z,22.70
2018-05-10T18:07:35.874Z,22.80
2018-05-10T18:10:02.103Z,22.70
2018-05-10T18:12:28.324Z,22.70
2018-05-10T18:14:54.568Z,22.70
2018-05-10T18:17:20.744Z,22.70
2018-05-10T18:19:47.723Z,22.70
2018-05-10T18:22:14.758Z,22.70
2018-05-10T18:24:41.770Z,22.60
2018-05-10T18:27:07.997Z,22.60
2018-05-10T18:29:34.663Z,22.60
2018-05-10T18:32:01.623Z,22.70
2018-05-10T18:34:27.843Z,22.60
2018-05-10T18:36:54.058Z,22.60
2018-05-10T18:39:20.997Z,22.60
2018-05-10T18:41:47.953Z,22.60
2018-05-10T18:44:14.160Z,22.60
2018-05-10T18:46:41.133Z,22.60
2018-05-10T18:49:07.358Z,22.60
2018-05-10T18:51:33.605Z,22.60
2018-05-10T18:53:59.870Z,22.60
2018-05-10T18:56:27.806Z,22.60
2018-05-10T18:58:54.005Z,22.60
2018-05-10T19:01:21.004Z,22.60
2018-05-10T19:03:47.201Z,22.60
2018-05-10T19:06:13.784Z,22.60
2018-05-10T19:08:40.032Z,22.60
2018-05-10T19:11:06.252Z,22.60
2018-05-10T19:13:32.487Z,22.60
2018-05-10T19:15:58.750Z,22.60
2018-05-10T19:18:24.982Z,22.60
2018-05-10T19:20:51.276Z,22.60
2018-05-10T19:23:17.412Z,22.60
2018-05-10T19:25:43.672Z,22.60
2018-05-10T19:28:10.655Z,22.60
2018-05-10T19:30:36.876Z,22.60
2018-05-10T19:33:03.090Z,22.70
2018-05-10T19:35:29.309Z,22.70
2018-05-10T19:37:55.511Z,22.70
2018-05-10T19:40:22.499Z,22.70
2018-05-10T19:42:48.754Z,22.70
2018-05-10T19:45:15.037Z,22.70
2018-05-10T19:47:41.199Z,22.70
2018-05-10T19:50:15.123Z,22.70
2018-05-10T19:52:41.350Z,22.70
2018-05-10T19:55:07.612Z,22.70
2018-05-10T19:57:34.568Z,22.70
2018-05-10T20:00:00.770Z,22.70
2018-05-10T20:02:26.970Z,22.60
2018-05-10T20:04:53.912Z,22.70
2018-05-10T20:07:20.149Z,22.70
2018-05-10T20:09:46.362Z,22.70
2018-05-10T20:12:12.564Z,22.70
2018-05-10T20:14:39.519Z,22.70
2018-05-10T20:17:05.724Z,22.70
2018-05-10T20:19:31.900Z,22.70
2018-05-10T20:21:58.111Z,22.70
2018-05-10T20:24:24.310Z,22.60
2018-05-10T20:26:50.508Z,22.70
2018-05-10T20:29:16.726Z,22.70
2018-05-10T20:31:43.666Z,22.70
2018-05-10T20:34:10.618Z,22.70
2018-05-10T20:36:36.837Z,22.70
2018-05-10T20:39:03.795Z,22.70
2018-05-10T20:41:30.014Z,22.70
2018-05-10T20:43:56.220Z,22.70
2018-05-10T20:46:22.941Z,22.70
2018-05-10T20:48:49.183Z,22.70
2018-05-10T20:51:22.229Z,22.60
2018-05-10T20:53:49.199Z,22.60
2018-05-10T20:56:16.234Z,22.60
2018-05-10T20:58:42.755Z,22.60
2018-05-10T21:01:09.694Z,22.60
2018-05-10T21:03:36.636Z,22.60
2018-05-10T21:06:02.943Z,22.60
2018-05-10T21:08:29.172Z,22.60
2018-05-10T21:10:55.377Z,22.50
2018-05-10T21:13:21.564Z,22.50
2018-05-10T21:15:48.003Z,22.60
2018-05-10T21:18:14.254Z,22.60
2018-05-10T21:20:40.510Z,22.60
2018-05-10T21:23:07.513Z,22.50
2018-05-10T21:25:33.690Z,22.50
2018-05-10T21:28:00.654Z,22.50
2018-05-10T21:30:26.853Z,22.50
2018-05-10T21:32:54.962Z,22.50
2018-05-10T21:35:22.009Z,22.50
2018-05-10T21:37:49.562Z,22.50
2018-05-10T21:40:15.833Z,22.50
2018-05-10T21:42:42.769Z,22.50
2018-05-10T21:45:08.947Z,22.50
2018-05-10T21:47:35.871Z,22.50
2018-05-10T21:50:05.311Z,22.50
2018-05-10T21:52:31.534Z,22.40
2018-05-10T21:54:58.490Z,22.50
2018-05-10T21:57:24.686Z,22.40
2018-05-10T21:59:51.626Z,22.40
2018-05-10T22:02:17.836Z,22.40
2018-05-10T22:04:44.036Z,22.50
2018-05-10T22:07:10.226Z,22.40
2018-05-10T22:09:36.449Z,22.40
2018-05-10T22:12:02.676Z,22.40
2018-05-10T22:14:29.633Z,22.40
2018-05-10T22:16:55.856Z,22.40
2018-05-10T22:19:22.783Z,22.40
2018-05-10T22:21:48.950Z,22.40
2018-05-10T22:24:15.145Z,22.40
2018-05-10T22:26:41.360Z,22.40
2018-05-10T22:29:07.574Z,22.40
2018-05-10T22:31:33.804Z,22.40
2018-05-10T22:34:00.010Z,22.40
2018-05-10T22:36:26.972Z,22.40
2018-05-10T22:38:53.960Z,22.40
2018-05-10T22:41:20.137Z,22.40
2018-05-10T22:43:47.054Z,22.50
2018-05-10T22:46:13.517Z,22.50
2018-05-10T22:48:39.739Z,22.50
2018-05-10T22:51:05.930Z,22.50
2018-05-10T22:53:32.148Z,22.50
2018-05-10T22:55:58.344Z,22.50
2018-05-10T22:58:24.537Z,22.50
2018-05-10T23:00:51.475Z,22.50
2018-05-10T23:03:18.415Z,22.50
2018-05-10T23:05:45.373Z,22.50
2018-05-10T23:08:11.571Z,22.50
2018-05-10T23:10:37.785Z,22.50
2018-05-10T23:13:04.741Z,22.50
2018-05-10T23:15:30.969Z,22.50
2018-05-10T23:17:57.913Z,22.50
2018-05-10T23:20:24.108Z,22.50
2018-05-10T23:22:50.315Z,22.50
2018-05-10T23:25:16.538Z,22.50
2018-05-10T23:27:42.761Z,22.50
2018-05-10T23:30:08.945Z,22.50
2018-05-10T23:32:35.160Z,22.50
2018-05-10T23:35:01.323Z,22.50
2018-05-10T23:37:27.536Z,22.50
2018-05-10T23:39:54.453Z,22.50
2018-05-10T23:42:20.641Z,22.50
2018-05-10T23:44:46.861Z,22.50
2018-05-10T23:47:13.843Z,22.50
2018-05-10T23:49:40.123Z,22.50
2018-05-10T23:52:06.321Z,22.50
2018-05-10T23:54:32.525Z,22.50
2018-05-10T23:56:58.719Z,22.50
2018-05-10T23:59:24.918Z,22.50
